sensor_id;sensor_type;location;lat;lon;timestamp;P1;durP1;ratioP1;P2;durP2;ratioP2
22965;SDS011;11649;48.090;9.754;2024-01-15T00:00:21;14.82;;;7.65;;
22965;SDS011;11649;48.090;9.754;2024-01-15T00:02:48;15.25;;;7.93;;
22965;SDS011;11649;48.090;9.754;2024-01-15T00:05:15;15.82;;;7.88;;
22965;SDS011;11649;48.090;9.754;2024-01-15T00:07:42;17.60;;;7.93;;
22965;SDS011;11649;48.090;9.754;2024-01-15T00:10:09;15.52;;;7.38;;
22965;SDS011;11649;48.090;9.754;2024-01-15T00:12:35;16.05;;;7.18;;
22965;SDS011;11649;48.090;9.754;2024-01-15T00:15:03;17.00;;;7.65;;
22965;SDS011;11649;48.090;9.754;2024-01-15T00:17:31;13.82;;;7.63;;
22965;SDS011;11649;48.090;9.754;2024-01-15T00:19:58;13.27;;;7.03;;
22965;SDS011;11649;48.090;9.754;2024-01-15T00:22:25;13.20;;;7.13;;
22965;SDS011;11649;48.090;9.754;2024-01-15T00:24:52;13.55;;;7.30;;
22965;SDS011;11649;48.090;9.754;2024-01-15T00:27:19;16.38;;;7.75;;
22965;SDS011;11649;48.090;9.754;2024-01-15T00:29:46;14.10;;;6.85;;
22965;SDS011;11649;48.090;9.754;2024-01-15T00:32:13;14.65;;;7.63;;
22965;SDS011;11649;48.090;9.754;2024-01-15T00:34:40;14.43;;;7.18;;
22965;SDS011;11649;48.090;9.754;2024-01-15T00:37:07;14.75;;;7.00;;
22965;SDS011;11649;48.090;9.754;2024-01-15T00:39:34;14.05;;;7.35;;
22965;SDS011;11649;48.090;9.754;2024-01-15T00:42:02;14.02;;;7.43;;
22965;SDS011;11649;48.090;9.754;2024-01-15T00:44:29;13.98;;;7.10;;
22965;SDS011;11649;48.090;9.754;2024-01-15T00:46:56;19.33;;;8.07;;
22965;SDS011;11649;48.090;9.754;2024-01-15T00:49:22;15.07;;;7.43;;
22965;SDS011;11649;48.090;9.754;2024-01-15T00:51:50;15.00;;;7.13;;
22965;SDS011;11649;48.090;9.754;2024-01-15T00:54:17;14.98;;;6.95;;
22965;SDS011;11649;48.090;9.754;2024-01-15T00:56:44;15.18;;;7.47;;
22965;SDS011;11649;48.090;9.754;2024-01-15T00:59:11;18.08;;;7.25;;
22965;SDS011;11649;48.090;9.754;2024-01-15T01:01:41;13.35;;;7.18;;
22965;SDS011;11649;48.090;9.754;2024-01-15T01:04:09;13.05;;;6.65;;
22965;SDS011;11649;48.090;9.754;2024-01-15T01:06:37;13.15;;;6.90;;
22965;SDS011;11649;48.090;9.754;2024-01-15T01:09:04;15.27;;;7.43;;
22965;SDS011;11649;48.090;9.754;2024-01-15T01:11:31;14.30;;;7.30;;
22965;SDS011;11649;48.090;9.754;2024-01-15T01:13:58;13.23;;;7.40;;
22965;SDS011;11649;48.090;9.754;2024-01-15T01:16:25;14.80;;;7.30;;
22965;SDS011;11649;48.090;9.754;2024-01-15T01:18:51;17.42;;;7.35;;
22965;SDS011;11649;48.090;9.754;2024-01-15T01:21:19;13.55;;;7.50;;
22965;SDS011;11649;48.090;9.754;2024-01-15T01:23:45;19.17;;;8.10;;
22965;SDS011;11649;48.090;9.754;2024-01-15T01:26:15;18.50;;;8.38;;
22965;SDS011;11649;48.090;9.754;2024-01-15T01:28:42;16.25;;;8.68;;
22965;SDS011;11649;48.090;9.754;2024-01-15T01:31:09;17.60;;;8.65;;
22965;SDS011;11649;48.090;9.754;2024-01-15T01:33:37;21.50;;;8.57;;
22965;SDS011;11649;48.090;9.754;2024-01-15T01:36:09;18.42;;;9.05;;
22965;SDS011;11649;48.090;9.754;2024-01-15T01:38:36;19.63;;;9.57;;
22965;SDS011;11649;48.090;9.754;2024-01-15T01:41:04;18.60;;;8.93;;
22965;SDS011;11649;48.090;9.754;2024-01-15T01:43:31;18.92;;;8.88;;
22965;SDS011;11649;48.090;9.754;2024-01-15T01:45:58;20.15;;;9.00;;
22965;SDS011;11649;48.090;9.754;2024-01-15T01:48:27;19.70;;;8.95;;
22965;SDS011;11649;48.090;9.754;2024-01-15T01:50:56;19.10;;;9.13;;
22965;SDS011;11649;48.090;9.754;2024-01-15T01:53:26;22.63;;;9.88;;
22965;SDS011;11649;48.090;9.754;2024-01-15T01:55:54;19.00;;;9.27;;
22965;SDS011;11649;48.090;9.754;2024-01-15T01:58:23;17.13;;;8.43;;
22965;SDS011;11649;48.090;9.754;2024-01-15T02:00:51;17.13;;;8.52;;
22965;SDS011;11649;48.090;9.754;2024-01-15T02:03:19;21.08;;;9.65;;
22965;SDS011;11649;48.090;9.754;2024-01-15T02:05:47;16.48;;;8.35;;
22965;SDS011;11649;48.090;9.754;2024-01-15T02:08:15;18.20;;;8.90;;
22965;SDS011;11649;48.090;9.754;2024-01-15T02:10:42;20.08;;;8.98;;
22965;SDS011;11649;48.090;9.754;2024-01-15T02:13:08;19.92;;;8.73;;
22965;SDS011;11649;48.090;9.754;2024-01-15T02:15:35;17.88;;;8.45;;
22965;SDS011;11649;48.090;9.754;2024-01-15T02:18:03;20.00;;;9.25;;
22965;SDS011;11649;48.090;9.754;2024-01-15T02:20:31;19.08;;;8.93;;
22965;SDS011;11649;48.090;9.754;2024-01-15T02:23:12;18.80;;;8.88;;
22965;SDS011;11649;48.090;9.754;2024-01-15T02:25:40;16.10;;;8.27;;
22965;SDS011;11649;48.090;9.754;2024-01-15T02:28:12;17.50;;;8.35;;
22965;SDS011;11649;48.090;9.754;2024-01-15T02:30:40;19.13;;;8.88;;
22965;SDS011;11649;48.090;9.754;2024-01-15T02:33:08;16.38;;;8.32;;
22965;SDS011;11649;48.090;9.754;2024-01-15T02:35:36;18.25;;;8.13;;
22965;SDS011;11649;48.090;9.754;2024-01-15T02:38:07;15.98;;;8.27;;
22965;SDS011;11649;48.090;9.754;2024-01-15T02:40:34;16.73;;;8.07;;
22965;SDS011;11649;48.090;9.754;2024-01-15T02:43:02;18.90;;;8.60;;
22965;SDS011;11649;48.090;9.754;2024-01-15T02:45:29;19.85;;;8.73;;
22965;SDS011;11649;48.090;9.754;2024-01-15T02:47:56;18.15;;;8.35;;
22965;SDS011;11649;48.090;9.754;2024-01-15T02:50:23;15.95;;;7.72;;
22965;SDS011;11649;48.090;9.754;2024-01-15T02:52:50;18.58;;;8.10;;
22965;SDS011;11649;48.090;9.754;2024-01-15T02:55:17;17.65;;;8.27;;
22965;SDS011;11649;48.090;9.754;2024-01-15T02:57:44;15.43;;;8.18;;
22965;SDS011;11649;48.090;9.754;2024-01-15T03:00:11;19.48;;;8.90;;
22965;SDS011;11649;48.090;9.754;2024-01-15T03:02:39;18.40;;;8.55;;
22965;SDS011;11649;48.090;9.754;2024-01-15T03:05:10;17.73;;;8.10;;
22965;SDS011;11649;48.090;9.754;2024-01-15T03:07:37;16.55;;;8.07;;
22965;SDS011;11649;48.090;9.754;2024-01-15T03:10:07;17.10;;;8.13;;
22965;SDS011;11649;48.090;9.754;2024-01-15T03:12:34;16.38;;;8.00;;
22965;SDS011;11649;48.090;9.754;2024-01-15T03:15:01;15.15;;;7.18;;
22965;SDS011;11649;48.090;9.754;2024-01-15T03:17:28;21.05;;;8.68;;
22965;SDS011;11649;48.090;9.754;2024-01-15T03:19:55;16.15;;;7.93;;
22965;SDS011;11649;48.090;9.754;2024-01-15T03:22:22;14.55;;;7.80;;
22965;SDS011;11649;48.090;9.754;2024-01-15T03:24:49;17.60;;;8.27;;
22965;SDS011;11649;48.090;9.754;2024-01-15T03:27:16;19.27;;;8.77;;
22965;SDS011;11649;48.090;9.754;2024-01-15T03:29:43;18.35;;;7.75;;
22965;SDS011;11649;48.090;9.754;2024-01-15T03:32:09;14.70;;;8.27;;
22965;SDS011;11649;48.090;9.754;2024-01-15T03:34:36;20.67;;;8.82;;
22965;SDS011;11649;48.090;9.754;2024-01-15T03:37:03;18.35;;;8.77;;
22965;SDS011;11649;48.090;9.754;2024-01-15T03:39:30;15.00;;;7.60;;
22965;SDS011;11649;48.090;9.754;2024-01-15T03:41:57;17.23;;;8.20;;
22965;SDS011;11649;48.090;9.754;2024-01-15T03:44:24;18.20;;;8.85;;
22965;SDS011;11649;48.090;9.754;2024-01-15T03:46:51;18.08;;;8.18;;
22965;SDS011;11649;48.090;9.754;2024-01-15T03:49:17;15.00;;;7.68;;
22965;SDS011;11649;48.090;9.754;2024-01-15T03:51:44;20.08;;;7.45;;
22965;SDS011;11649;48.090;9.754;2024-01-15T03:54:11;17.23;;;8.15;;
22965;SDS011;11649;48.090;9.754;2024-01-15T03:56:38;15.52;;;7.32;;
22965;SDS011;11649;48.090;9.754;2024-01-15T03:59:05;13.65;;;7.35;;
22965;SDS011;11649;48.090;9.754;2024-01-15T04:01:32;17.38;;;7.28;;
22965;SDS011;11649;48.090;9.754;2024-01-15T04:03:59;17.20;;;7.20;;
22965;SDS011;11649;48.090;9.754;2024-01-15T04:06:26;13.02;;;6.82;;
22965;SDS011;11649;48.090;9.754;2024-01-15T04:08:52;16.00;;;7.28;;
22965;SDS011;11649;48.090;9.754;2024-01-15T04:11:19;17.02;;;7.85;;
22965;SDS011;11649;48.090;9.754;2024-01-15T04:13:46;13.25;;;7.13;;
22965;SDS011;11649;48.090;9.754;2024-01-15T04:16:13;16.08;;;6.85;;
22965;SDS011;11649;48.090;9.754;2024-01-15T04:18:39;16.70;;;7.20;;
22965;SDS011;11649;48.090;9.754;2024-01-15T04:21:06;12.90;;;6.70;;
22965;SDS011;11649;48.090;9.754;2024-01-15T04:23:33;16.02;;;6.72;;
22965;SDS011;11649;48.090;9.754;2024-01-15T04:26:00;17.45;;;7.10;;
22965;SDS011;11649;48.090;9.754;2024-01-15T04:28:26;15.13;;;6.57;;
22965;SDS011;11649;48.090;9.754;2024-01-15T04:30:53;15.80;;;6.88;;
22965;SDS011;11649;48.090;9.754;2024-01-15T04:33:20;14.80;;;6.85;;
22965;SDS011;11649;48.090;9.754;2024-01-15T04:35:48;15.85;;;8.25;;
22965;SDS011;11649;48.090;9.754;2024-01-15T04:38:15;16.45;;;8.27;;
22965;SDS011;11649;48.090;9.754;2024-01-15T04:40:42;14.48;;;7.63;;
22965;SDS011;11649;48.090;9.754;2024-01-15T04:43:09;17.60;;;7.80;;
22965;SDS011;11649;48.090;9.754;2024-01-15T04:45:36;17.08;;;7.18;;
22965;SDS011;11649;48.090;9.754;2024-01-15T04:48:02;17.30;;;7.60;;
22965;SDS011;11649;48.090;9.754;2024-01-15T04:50:30;13.75;;;7.57;;
22965;SDS011;11649;48.090;9.754;2024-01-15T04:52:56;23.95;;;9.43;;
22965;SDS011;11649;48.090;9.754;2024-01-15T04:55:23;20.30;;;9.07;;
22965;SDS011;11649;48.090;9.754;2024-01-15T04:57:50;22.75;;;10.55;;
22965;SDS011;11649;48.090;9.754;2024-01-15T05:00:17;22.63;;;10.93;;
22965;SDS011;11649;48.090;9.754;2024-01-15T05:02:44;28.40;;;11.68;;
22965;SDS011;11649;48.090;9.754;2024-01-15T05:05:10;22.48;;;9.98;;
22965;SDS011;11649;48.090;9.754;2024-01-15T05:07:37;28.00;;;11.32;;
22965;SDS011;11649;48.090;9.754;2024-01-15T05:10:04;31.35;;;12.23;;
22965;SDS011;11649;48.090;9.754;2024-01-15T05:12:31;24.98;;;9.85;;
22965;SDS011;11649;48.090;9.754;2024-01-15T05:14:58;21.02;;;9.45;;
22965;SDS011;11649;48.090;9.754;2024-01-15T05:17:25;18.10;;;8.65;;
22965;SDS011;11649;48.090;9.754;2024-01-15T05:19:52;24.33;;;10.55;;
22965;SDS011;11649;48.090;9.754;2024-01-15T05:22:19;18.88;;;8.20;;
22965;SDS011;11649;48.090;9.754;2024-01-15T05:24:47;23.67;;;9.82;;
22965;SDS011;11649;48.090;9.754;2024-01-15T05:27:14;23.58;;;9.07;;
22965;SDS011;11649;48.090;9.754;2024-01-15T05:29:41;21.60;;;9.23;;
22965;SDS011;11649;48.090;9.754;2024-01-15T05:32:08;21.08;;;8.80;;
22965;SDS011;11649;48.090;9.754;2024-01-15T05:34:35;18.05;;;8.70;;
22965;SDS011;11649;48.090;9.754;2024-01-15T05:37:01;20.42;;;8.90;;
22965;SDS011;11649;48.090;9.754;2024-01-15T05:39:28;19.73;;;9.23;;
22965;SDS011;11649;48.090;9.754;2024-01-15T05:41:55;15.75;;;7.68;;
22965;SDS011;11649;48.090;9.754;2024-01-15T05:44:22;17.65;;;7.45;;
22965;SDS011;11649;48.090;9.754;2024-01-15T05:46:49;17.35;;;7.53;;
22965;SDS011;11649;48.090;9.754;2024-01-15T05:49:15;14.13;;;7.40;;
22965;SDS011;11649;48.090;9.754;2024-01-15T05:51:43;13.02;;;6.50;;
22965;SDS011;11649;48.090;9.754;2024-01-15T05:54:09;10.77;;;5.80;;
22965;SDS011;11649;48.090;9.754;2024-01-15T05:56:36;11.75;;;5.82;;
22965;SDS011;11649;48.090;9.754;2024-01-15T05:59:03;12.57;;;5.13;;
22965;SDS011;11649;48.090;9.754;2024-01-15T06:01:30;8.55;;;4.93;;
22965;SDS011;11649;48.090;9.754;2024-01-15T06:03:56;10.57;;;4.72;;
22965;SDS011;11649;48.090;9.754;2024-01-15T06:06:23;12.65;;;5.45;;
22965;SDS011;11649;48.090;9.754;2024-01-15T06:08:50;15.52;;;6.40;;
22965;SDS011;11649;48.090;9.754;2024-01-15T06:11:17;20.05;;;8.23;;
22965;SDS011;11649;48.090;9.754;2024-01-15T06:13:43;13.65;;;6.22;;
22965;SDS011;11649;48.090;9.754;2024-01-15T06:16:14;14.95;;;6.70;;
22965;SDS011;11649;48.090;9.754;2024-01-15T06:18:42;13.48;;;7.05;;
22965;SDS011;11649;48.090;9.754;2024-01-15T06:21:09;17.00;;;7.80;;
22965;SDS011;11649;48.090;9.754;2024-01-15T06:23:39;13.77;;;6.88;;
22965;SDS011;11649;48.090;9.754;2024-01-15T06:26:05;16.10;;;7.80;;
22965;SDS011;11649;48.090;9.754;2024-01-15T06:28:32;21.85;;;8.10;;
22965;SDS011;11649;48.090;9.754;2024-01-15T06:30:59;16.52;;;8.20;;
22965;SDS011;11649;48.090;9.754;2024-01-15T06:33:26;10.77;;;5.60;;
22965;SDS011;11649;48.090;9.754;2024-01-15T06:35:56;10.95;;;6.25;;
22965;SDS011;11649;48.090;9.754;2024-01-15T06:38:22;8.10;;;4.43;;
22965;SDS011;11649;48.090;9.754;2024-01-15T06:40:49;8.02;;;4.57;;
22965;SDS011;11649;48.090;9.754;2024-01-15T06:43:19;9.23;;;4.93;;
22965;SDS011;11649;48.090;9.754;2024-01-15T06:45:46;10.38;;;5.28;;
22965;SDS011;11649;48.090;9.754;2024-01-15T06:48:13;10.20;;;4.70;;
22965;SDS011;11649;48.090;9.754;2024-01-15T06:50:42;11.45;;;5.00;;
22965;SDS011;11649;48.090;9.754;2024-01-15T06:53:10;9.57;;;5.15;;
22965;SDS011;11649;48.090;9.754;2024-01-15T06:55:37;8.52;;;4.70;;
22965;SDS011;11649;48.090;9.754;2024-01-15T06:58:05;8.88;;;4.78;;
22965;SDS011;11649;48.090;9.754;2024-01-15T07:00:31;10.07;;;4.90;;
22965;SDS011;11649;48.090;9.754;2024-01-15T07:02:58;9.70;;;5.00;;
22965;SDS011;11649;48.090;9.754;2024-01-15T07:05:25;12.32;;;5.55;;
22965;SDS011;11649;48.090;9.754;2024-01-15T07:07:52;9.70;;;4.70;;
22965;SDS011;11649;48.090;9.754;2024-01-15T07:10:19;10.82;;;5.78;;
22965;SDS011;11649;48.090;9.754;2024-01-15T07:12:46;10.63;;;5.20;;
22965;SDS011;11649;48.090;9.754;2024-01-15T07:15:13;8.50;;;4.45;;
22965;SDS011;11649;48.090;9.754;2024-01-15T07:17:40;10.20;;;4.95;;
22965;SDS011;11649;48.090;9.754;2024-01-15T07:20:08;8.57;;;4.55;;
22965;SDS011;11649;48.090;9.754;2024-01-15T07:22:36;11.13;;;4.60;;
22965;SDS011;11649;48.090;9.754;2024-01-15T07:25:03;8.63;;;4.07;;
22965;SDS011;11649;48.090;9.754;2024-01-15T07:27:33;9.20;;;3.95;;
22965;SDS011;11649;48.090;9.754;2024-01-15T07:30:00;7.05;;;4.00;;
22965;SDS011;11649;48.090;9.754;2024-01-15T07:32:28;6.18;;;3.72;;
22965;SDS011;11649;48.090;9.754;2024-01-15T07:34:55;7.57;;;4.30;;
22965;SDS011;11649;48.090;9.754;2024-01-15T07:37:22;8.90;;;4.50;;
22965;SDS011;11649;48.090;9.754;2024-01-15T07:39:49;9.27;;;4.60;;
22965;SDS011;11649;48.090;9.754;2024-01-15T07:42:16;8.25;;;4.13;;
22965;SDS011;11649;48.090;9.754;2024-01-15T07:44:43;8.10;;;4.28;;
22965;SDS011;11649;48.090;9.754;2024-01-15T07:47:11;7.35;;;4.28;;
22965;SDS011;11649;48.090;9.754;2024-01-15T07:49:38;6.45;;;3.55;;
22965;SDS011;11649;48.090;9.754;2024-01-15T07:52:05;9.27;;;3.90;;
22965;SDS011;11649;48.090;9.754;2024-01-15T07:54:32;10.43;;;4.60;;
22965;SDS011;11649;48.090;9.754;2024-01-15T07:57:00;6.40;;;3.97;;
22965;SDS011;11649;48.090;9.754;2024-01-15T07:59:29;10.73;;;4.30;;
22965;SDS011;11649;48.090;9.754;2024-01-15T08:01:57;5.90;;;3.47;;
22965;SDS011;11649;48.090;9.754;2024-01-15T08:04:25;6.35;;;3.25;;
22965;SDS011;11649;48.090;9.754;2024-01-15T08:06:52;6.85;;;2.85;;
22965;SDS011;11649;48.090;9.754;2024-01-15T08:09:19;7.47;;;3.50;;
22965;SDS011;11649;48.090;9.754;2024-01-15T08:11:46;6.25;;;3.20;;
22965;SDS011;11649;48.090;9.754;2024-01-15T08:14:13;6.05;;;3.35;;
22965;SDS011;11649;48.090;9.754;2024-01-15T08:16:40;6.95;;;3.53;;
22965;SDS011;11649;48.090;9.754;2024-01-15T08:19:06;4.90;;;2.75;;
22965;SDS011;11649;48.090;9.754;2024-01-15T08:21:33;6.40;;;3.40;;
22965;SDS011;11649;48.090;9.754;2024-01-15T08:24:01;7.32;;;3.70;;
22965;SDS011;11649;48.090;9.754;2024-01-15T08:26:29;6.90;;;3.65;;
22965;SDS011;11649;48.090;9.754;2024-01-15T08:28:56;10.82;;;4.95;;
22965;SDS011;11649;48.090;9.754;2024-01-15T08:31:23;18.52;;;7.55;;
22965;SDS011;11649;48.090;9.754;2024-01-15T08:33:50;13.00;;;6.20;;
22965;SDS011;11649;48.090;9.754;2024-01-15T08:36:17;6.22;;;3.60;;
22965;SDS011;11649;48.090;9.754;2024-01-15T08:38:45;10.68;;;5.47;;
22965;SDS011;11649;48.090;9.754;2024-01-15T08:41:12;8.88;;;4.15;;
22965;SDS011;11649;48.090;9.754;2024-01-15T08:43:39;8.20;;;4.63;;
22965;SDS011;11649;48.090;9.754;2024-01-15T08:46:06;9.10;;;4.28;;
22965;SDS011;11649;48.090;9.754;2024-01-15T08:48:33;15.48;;;6.40;;
22965;SDS011;11649;48.090;9.754;2024-01-15T08:51:01;7.50;;;4.03;;
22965;SDS011;11649;48.090;9.754;2024-01-15T08:53:27;6.72;;;3.30;;
22965;SDS011;11649;48.090;9.754;2024-01-15T08:55:54;6.90;;;3.20;;
22965;SDS011;11649;48.090;9.754;2024-01-15T08:58:22;4.03;;;2.45;;
22965;SDS011;11649;48.090;9.754;2024-01-15T09:00:50;6.13;;;2.50;;
22965;SDS011;11649;48.090;9.754;2024-01-15T09:03:18;5.68;;;3.22;;
22965;SDS011;11649;48.090;9.754;2024-01-15T09:05:45;5.90;;;3.10;;
22965;SDS011;11649;48.090;9.754;2024-01-15T09:08:12;4.90;;;2.75;;
22965;SDS011;11649;48.090;9.754;2024-01-15T09:10:39;4.72;;;2.83;;
22965;SDS011;11649;48.090;9.754;2024-01-15T09:13:07;3.70;;;2.33;;
22965;SDS011;11649;48.090;9.754;2024-01-15T09:15:34;4.38;;;2.40;;
22965;SDS011;11649;48.090;9.754;2024-01-15T09:18:01;3.58;;;2.13;;
22965;SDS011;11649;48.090;9.754;2024-01-15T09:20:33;3.58;;;1.85;;
22965;SDS011;11649;48.090;9.754;2024-01-15T09:22:59;5.95;;;2.80;;
22965;SDS011;11649;48.090;9.754;2024-01-15T09:25:26;3.85;;;1.83;;
22965;SDS011;11649;48.090;9.754;2024-01-15T09:27:53;3.90;;;2.15;;
22965;SDS011;11649;48.090;9.754;2024-01-15T09:30:20;6.05;;;3.63;;
22965;SDS011;11649;48.090;9.754;2024-01-15T09:32:47;5.07;;;3.03;;
22965;SDS011;11649;48.090;9.754;2024-01-15T09:35:14;5.45;;;2.63;;
22965;SDS011;11649;48.090;9.754;2024-01-15T09:37:41;3.33;;;2.20;;
22965;SDS011;11649;48.090;9.754;2024-01-15T09:40:13;5.15;;;2.50;;
22965;SDS011;11649;48.090;9.754;2024-01-15T09:42:42;5.07;;;2.80;;
22965;SDS011;11649;48.090;9.754;2024-01-15T09:45:09;8.80;;;3.88;;
22965;SDS011;11649;48.090;9.754;2024-01-15T09:47:36;5.07;;;3.35;;
22965;SDS011;11649;48.090;9.754;2024-01-15T09:50:09;4.95;;;2.97;;
22965;SDS011;11649;48.090;9.754;2024-01-15T09:52:36;5.55;;;2.85;;
22965;SDS011;11649;48.090;9.754;2024-01-15T09:55:05;4.80;;;2.42;;
22965;SDS011;11649;48.090;9.754;2024-01-15T09:57:32;4.18;;;2.30;;
22965;SDS011;11649;48.090;9.754;2024-01-15T09:59:59;3.97;;;2.60;;
22965;SDS011;11649;48.090;9.754;2024-01-15T10:02:30;4.53;;;2.78;;
22965;SDS011;11649;48.090;9.754;2024-01-15T10:04:57;5.18;;;3.13;;
22965;SDS011;11649;48.090;9.754;2024-01-15T10:07:25;4.63;;;2.35;;
22965;SDS011;11649;48.090;9.754;2024-01-15T10:09:52;4.45;;;2.80;;
22965;SDS011;11649;48.090;9.754;2024-01-15T10:12:20;4.88;;;2.72;;
22965;SDS011;11649;48.090;9.754;2024-01-15T10:14:48;4.95;;;3.00;;
22965;SDS011;11649;48.090;9.754;2024-01-15T10:17:16;5.13;;;2.80;;
22965;SDS011;11649;48.090;9.754;2024-01-15T10:19:46;5.00;;;2.95;;
22965;SDS011;11649;48.090;9.754;2024-01-15T10:22:16;5.28;;;3.10;;
22965;SDS011;11649;48.090;9.754;2024-01-15T10:24:44;4.55;;;2.90;;
22965;SDS011;11649;48.090;9.754;2024-01-15T10:27:14;5.40;;;3.00;;
22965;SDS011;11649;48.090;9.754;2024-01-15T10:29:42;5.47;;;3.20;;
22965;SDS011;11649;48.090;9.754;2024-01-15T10:32:09;5.55;;;2.95;;
22965;SDS011;11649;48.090;9.754;2024-01-15T10:34:37;5.22;;;2.75;;
22965;SDS011;11649;48.090;9.754;2024-01-15T10:37:09;4.85;;;2.75;;
22965;SDS011;11649;48.090;9.754;2024-01-15T10:39:37;5.80;;;2.88;;
22965;SDS011;11649;48.090;9.754;2024-01-15T10:42:04;6.93;;;3.50;;
22965;SDS011;11649;48.090;9.754;2024-01-15T10:44:33;4.90;;;2.83;;
22965;SDS011;11649;48.090;9.754;2024-01-15T10:47:01;5.88;;;2.97;;
22965;SDS011;11649;48.090;9.754;2024-01-15T10:49:28;6.95;;;2.88;;
22965;SDS011;11649;48.090;9.754;2024-01-15T10:52:00;7.22;;;3.90;;
22965;SDS011;11649;48.090;9.754;2024-01-15T10:54:29;7.00;;;4.20;;
22965;SDS011;11649;48.090;9.754;2024-01-15T10:56:56;8.57;;;4.25;;
22965;SDS011;11649;48.090;9.754;2024-01-15T10:59:23;9.65;;;5.05;;
22965;SDS011;11649;48.090;9.754;2024-01-15T11:01:51;10.73;;;4.95;;
22965;SDS011;11649;48.090;9.754;2024-01-15T11:04:22;11.65;;;5.07;;
22965;SDS011;11649;48.090;9.754;2024-01-15T11:06:52;11.48;;;5.30;;
22965;SDS011;11649;48.090;9.754;2024-01-15T11:09:23;9.35;;;5.00;;
22965;SDS011;11649;48.090;9.754;2024-01-15T11:11:52;12.30;;;5.72;;
22965;SDS011;11649;48.090;9.754;2024-01-15T11:17:06;12.20;;;5.72;;
22965;SDS011;11649;48.090;9.754;2024-01-15T11:19:37;11.43;;;5.32;;
22965;SDS011;11649;48.090;9.754;2024-01-15T11:22:09;8.82;;;5.15;;
22965;SDS011;11649;48.090;9.754;2024-01-15T11:24:57;10.43;;;4.88;;
22965;SDS011;11649;48.090;9.754;2024-01-15T11:27:39;11.13;;;5.18;;
22965;SDS011;11649;48.090;9.754;2024-01-15T11:30:09;8.95;;;5.05;;
22965;SDS011;11649;48.090;9.754;2024-01-15T11:32:37;14.43;;;6.30;;
22965;SDS011;11649;48.090;9.754;2024-01-15T11:35:08;11.07;;;5.38;;
22965;SDS011;11649;48.090;9.754;2024-01-15T11:40:19;8.95;;;5.10;;
22965;SDS011;11649;48.090;9.754;2024-01-15T11:42:46;12.45;;;5.10;;
22965;SDS011;11649;48.090;9.754;2024-01-15T11:45:18;10.63;;;5.20;;
22965;SDS011;11649;48.090;9.754;2024-01-15T11:50:36;11.10;;;5.75;;
22965;SDS011;11649;48.090;9.754;2024-01-15T11:53:27;15.80;;;6.40;;
22965;SDS011;11649;48.090;9.754;2024-01-15T11:56:03;12.32;;;5.90;;
22965;SDS011;11649;48.090;9.754;2024-01-15T11:58:36;12.13;;;6.22;;
22965;SDS011;11649;48.090;9.754;2024-01-15T12:01:03;12.93;;;6.72;;
22965;SDS011;11649;48.090;9.754;2024-01-15T12:03:31;12.48;;;6.40;;
22965;SDS011;11649;48.090;9.754;2024-01-15T12:06:00;14.30;;;7.28;;
22965;SDS011;11649;48.090;9.754;2024-01-15T12:08:27;14.45;;;6.85;;
22965;SDS011;11649;48.090;9.754;2024-01-15T12:10:54;17.13;;;6.85;;
22965;SDS011;11649;48.090;9.754;2024-01-15T12:13:23;12.85;;;6.05;;
22965;SDS011;11649;48.090;9.754;2024-01-15T12:15:50;11.75;;;5.63;;
22965;SDS011;11649;48.090;9.754;2024-01-15T12:18:17;11.02;;;5.72;;
22965;SDS011;11649;48.090;9.754;2024-01-15T12:20:46;11.05;;;5.22;;
22965;SDS011;11649;48.090;9.754;2024-01-15T12:23:14;9.90;;;4.95;;
22965;SDS011;11649;48.090;9.754;2024-01-15T12:25:41;11.85;;;5.80;;
22965;SDS011;11649;48.090;9.754;2024-01-15T12:28:08;9.90;;;5.70;;
22965;SDS011;11649;48.090;9.754;2024-01-15T12:30:36;14.40;;;5.57;;
22965;SDS011;11649;48.090;9.754;2024-01-15T12:33:04;16.10;;;5.70;;
22965;SDS011;11649;48.090;9.754;2024-01-15T12:35:35;11.77;;;5.43;;
22965;SDS011;11649;48.090;9.754;2024-01-15T12:38:03;13.10;;;6.10;;
22965;SDS011;11649;48.090;9.754;2024-01-15T12:40:31;14.32;;;6.30;;
22965;SDS011;11649;48.090;9.754;2024-01-15T12:42:59;11.20;;;5.63;;
22965;SDS011;11649;48.090;9.754;2024-01-15T12:45:27;11.50;;;5.68;;
22965;SDS011;11649;48.090;9.754;2024-01-15T12:47:54;11.85;;;6.43;;
22965;SDS011;11649;48.090;9.754;2024-01-15T12:50:23;12.02;;;5.93;;
22965;SDS011;11649;48.090;9.754;2024-01-15T12:52:51;13.80;;;6.35;;
22965;SDS011;11649;48.090;9.754;2024-01-15T12:55:18;11.48;;;5.60;;
22965;SDS011;11649;48.090;9.754;2024-01-15T12:57:45;13.75;;;6.07;;
22965;SDS011;11649;48.090;9.754;2024-01-15T13:00:12;12.07;;;6.30;;
22965;SDS011;11649;48.090;9.754;2024-01-15T13:02:41;10.82;;;5.72;;
22965;SDS011;11649;48.090;9.754;2024-01-15T13:05:10;12.35;;;6.05;;
22965;SDS011;11649;48.090;9.754;2024-01-15T13:07:40;12.40;;;5.55;;
22965;SDS011;11649;48.090;9.754;2024-01-15T13:10:09;13.45;;;6.80;;
22965;SDS011;11649;48.090;9.754;2024-01-15T13:12:37;8.88;;;4.72;;
22965;SDS011;11649;48.090;9.754;2024-01-15T13:15:05;10.50;;;4.68;;
22965;SDS011;11649;48.090;9.754;2024-01-15T13:17:39;7.90;;;3.70;;
22965;SDS011;11649;48.090;9.754;2024-01-15T13:20:06;9.63;;;5.00;;
22965;SDS011;11649;48.090;9.754;2024-01-15T13:22:34;10.15;;;4.57;;
22965;SDS011;11649;48.090;9.754;2024-01-15T13:25:04;8.52;;;5.07;;
22965;SDS011;11649;48.090;9.754;2024-01-15T13:27:33;9.57;;;4.93;;
22965;SDS011;11649;48.090;9.754;2024-01-15T13:30:02;9.80;;;4.63;;
22965;SDS011;11649;48.090;9.754;2024-01-15T13:32:30;11.60;;;5.28;;
22965;SDS011;11649;48.090;9.754;2024-01-15T13:34:57;9.20;;;5.38;;
22965;SDS011;11649;48.090;9.754;2024-01-15T13:37:24;9.85;;;5.43;;
22965;SDS011;11649;48.090;9.754;2024-01-15T13:39:51;12.07;;;5.75;;
22965;SDS011;11649;48.090;9.754;2024-01-15T13:42:19;9.30;;;6.03;;
22965;SDS011;11649;48.090;9.754;2024-01-15T13:44:48;10.88;;;5.50;;
22965;SDS011;11649;48.090;9.754;2024-01-15T13:47:15;12.65;;;6.50;;
22965;SDS011;11649;48.090;9.754;2024-01-15T13:49:42;12.25;;;6.18;;
22965;SDS011;11649;48.090;9.754;2024-01-15T13:52:09;12.07;;;5.65;;
22965;SDS011;11649;48.090;9.754;2024-01-15T13:54:36;12.13;;;5.50;;
22965;SDS011;11649;48.090;9.754;2024-01-15T13:57:15;8.73;;;4.80;;
22965;SDS011;11649;48.090;9.754;2024-01-15T13:59:43;8.15;;;4.32;;
22965;SDS011;11649;48.090;9.754;2024-01-15T14:02:09;9.77;;;5.13;;
22965;SDS011;11649;48.090;9.754;2024-01-15T14:04:37;9.63;;;4.63;;
22965;SDS011;11649;48.090;9.754;2024-01-15T14:07:05;11.70;;;5.45;;
22965;SDS011;11649;48.090;9.754;2024-01-15T14:09:32;9.50;;;4.65;;
22965;SDS011;11649;48.090;9.754;2024-01-15T14:11:59;13.80;;;5.80;;
22965;SDS011;11649;48.090;9.754;2024-01-15T14:14:26;9.52;;;4.72;;
22965;SDS011;11649;48.090;9.754;2024-01-15T14:16:53;6.28;;;3.80;;
22965;SDS011;11649;48.090;9.754;2024-01-15T14:19:19;7.15;;;3.63;;
22965;SDS011;11649;48.090;9.754;2024-01-15T14:21:47;6.93;;;3.50;;
22965;SDS011;11649;48.090;9.754;2024-01-15T14:24:15;6.57;;;3.42;;
22965;SDS011;11649;48.090;9.754;2024-01-15T14:26:44;7.13;;;3.20;;
22965;SDS011;11649;48.090;9.754;2024-01-15T14:29:11;7.00;;;3.83;;
22965;SDS011;11649;48.090;9.754;2024-01-15T14:31:38;4.63;;;2.35;;
22965;SDS011;11649;48.090;9.754;2024-01-15T14:34:08;4.57;;;1.98;;
22965;SDS011;11649;48.090;9.754;2024-01-15T14:36:35;6.22;;;2.65;;
22965;SDS011;11649;48.090;9.754;2024-01-15T14:39:02;5.22;;;2.35;;
22965;SDS011;11649;48.090;9.754;2024-01-15T14:41:29;4.50;;;2.35;;
22965;SDS011;11649;48.090;9.754;2024-01-15T14:43:56;3.20;;;2.00;;
22965;SDS011;11649;48.090;9.754;2024-01-15T14:46:24;6.40;;;2.58;;
22965;SDS011;11649;48.090;9.754;2024-01-15T14:48:53;4.10;;;2.13;;